createdAt,value
2023-03-03T00:00:05.191Z,6.20
2023-03-03T00:02:31.783Z,7.30
2023-03-03T00:04:58.456Z,6.80
2023-03-03T00:07:25.129Z,5.93
2023-03-03T00:09:51.609Z,5.00
2023-03-03T00:12:24.735Z,6.40
2023-03-03T00:14:51.641Z,6.27
2023-03-03T00:17:28.948Z,6.23
2023-03-03T00:19:55.984Z,6.67
2023-03-03T00:22:30.408Z,6.03
2023-03-03T00:25:26.258Z,7.17
2023-03-03T00:27:52.894Z,7.17
2023-03-03T00:30:27.422Z,7.10
2023-03-03T00:32:55.716Z,7.50
2023-03-03T00:35:35.771Z,7.30
2023-03-03T00:38:11.186Z,8.47
2023-03-03T00:40:39.482Z,7.80
2023-03-03T00:43:26.762Z,9.23
2023-03-03T00:45:54.856Z,9.27
2023-03-03T00:48:50.741Z,8.70
2023-03-03T00:51:23.244Z,9.23
2023-03-03T00:53:50.400Z,8.03
2023-03-03T00:56:17.168Z,8.60
2023-03-03T00:58:45.946Z,8.63
2023-03-03T01:01:12.511Z,8.20
2023-03-03T01:03:39.113Z,8.33
2023-03-03T01:06:05.996Z,7.80
2023-03-03T01:08:32.969Z,8.23
2023-03-03T01:11:05.684Z,8.23
2023-03-03T01:13:34.599Z,9.67
2023-03-03T01:16:02.648Z,9.20
2023-03-03T01:18:29.798Z,9.13
2023-03-03T01:20:56.343Z,8.60
2023-03-03T01:23:22.874Z,8.60
2023-03-03T01:25:49.469Z,10.70
2023-03-03T01:28:16.000Z,12.73
2023-03-03T01:30:42.635Z,11.20
2023-03-03T01:33:09.334Z,9.00
2023-03-03T01:35:36.781Z,7.63
2023-03-03T01:38:03.757Z,7.00
2023-03-03T01:40:31.264Z,8.57
2023-03-03T01:43:00.025Z,7.97
2023-03-03T01:45:31.450Z,7.73
2023-03-03T01:48:05.394Z,7.00
2023-03-03T01:50:40.106Z,8.93
2023-03-03T01:53:12.497Z,9.00
2023-03-03T01:55:41.613Z,9.20
2023-03-03T01:58:12.543Z,9.70
2023-03-03T02:00:41.569Z,9.53
2023-03-03T02:03:08.393Z,8.30
2023-03-03T02:05:35.488Z,9.03
2023-03-03T02:08:03.917Z,9.20
2023-03-03T02:10:30.690Z,8.60
2023-03-03T02:12:58.532Z,8.30
2023-03-03T02:15:36.076Z,8.60
2023-03-03T02:18:14.733Z,8.90
2023-03-03T02:20:51.681Z,8.50
2023-03-03T02:23:24.390Z,10.90
2023-03-03T02:25:59.095Z,8.80
2023-03-03T02:28:31.394Z,9.13
2023-03-03T02:30:59.392Z,8.70
2023-03-03T02:33:26.422Z,8.83
2023-03-03T02:35:53.459Z,9.00
2023-03-03T02:38:27.715Z,8.43
2023-03-03T02:41:03.912Z,8.87
2023-03-03T02:43:36.387Z,10.00
2023-03-03T02:46:03.306Z,9.37
2023-03-03T02:48:30.083Z,9.07
2023-03-03T02:50:56.557Z,9.30
2023-03-03T02:53:23.111Z,8.83
2023-03-03T02:55:49.754Z,8.10
2023-03-03T02:58:16.330Z,8.60
2023-03-03T03:00:42.886Z,8.70
2023-03-03T03:03:09.452Z,8.80
2023-03-03T03:05:36.366Z,9.70
2023-03-03T03:08:02.928Z,9.07
2023-03-03T03:10:29.504Z,9.23
2023-03-03T03:12:56.085Z,9.20
2023-03-03T03:15:22.593Z,9.40
2023-03-03T03:17:49.859Z,9.13
2023-03-03T03:20:17.517Z,8.87
2023-03-03T03:22:44.275Z,9.10
2023-03-03T03:25:10.792Z,10.47
2023-03-03T03:27:37.583Z,8.80
2023-03-03T03:30:04.410Z,9.50
2023-03-03T03:32:31.146Z,9.10
2023-03-03T03:34:57.743Z,10.50
2023-03-03T03:37:24.559Z,9.70
2023-03-03T03:39:51.268Z,8.00
2023-03-03T03:42:17.856Z,8.63
2023-03-03T03:44:44.310Z,8.10
2023-03-03T03:47:11.169Z,8.77
2023-03-03T03:49:37.813Z,9.53
2023-03-03T03:52:04.378Z,8.37
2023-03-03T03:54:31.111Z,9.63
2023-03-03T03:56:57.634Z,8.80
2023-03-03T03:59:24.193Z,7.90
2023-03-03T04:01:50.758Z,9.47
2023-03-03T04:04:17.481Z,7.67
2023-03-03T04:06:44.372Z,8.53
2023-03-03T04:09:11.341Z,8.47
2023-03-03T04:11:37.783Z,7.87
2023-03-03T04:14:04.391Z,8.27
2023-03-03T04:16:31.026Z,10.07
2023-03-03T04:18:58.005Z,7.23
2023-03-03T04:21:25.247Z,8.70
2023-03-03T04:23:53.510Z,7.77
2023-03-03T04:26:20.008Z,8.20
2023-03-03T04:28:46.696Z,8.33
2023-03-03T04:31:13.269Z,7.53
2023-03-03T04:33:40.010Z,8.40
2023-03-03T04:36:06.655Z,7.70
2023-03-03T04:38:33.265Z,9.23
2023-03-03T04:41:00.017Z,8.50
2023-03-03T04:43:26.774Z,8.03
2023-03-03T04:45:53.372Z,8.00
2023-03-03T04:48:20.121Z,8.00
2023-03-03T04:50:46.704Z,7.97
2023-03-03T04:53:13.344Z,7.63
2023-03-03T04:55:40.324Z,9.67
2023-03-03T04:58:07.550Z,9.30
2023-03-03T05:00:34.108Z,9.03
2023-03-03T05:03:00.866Z,8.67
2023-03-03T05:05:27.697Z,8.33
2023-03-03T05:07:54.279Z,7.33
2023-03-03T05:10:21.595Z,7.90
2023-03-03T05:12:48.579Z,8.30
2023-03-03T05:15:15.103Z,8.17
2023-03-03T05:17:41.736Z,7.23
2023-03-03T05:20:10.261Z,7.37
2023-03-03T05:22:36.845Z,7.90
2023-03-03T05:25:03.490Z,7.17
2023-03-03T05:27:30.183Z,7.63
2023-03-03T05:29:56.763Z,8.33
2023-03-03T05:32:23.361Z,7.43
2023-03-03T05:34:49.965Z,8.50
2023-03-03T05:37:16.538Z,7.70
2023-03-03T05:39:44.656Z,7.80
2023-03-03T05:42:13.064Z,9.10
2023-03-03T05:44:39.715Z,27.23
2023-03-03T05:47:06.315Z,12.83
2023-03-03T05:49:33.166Z,20.13
2023-03-03T05:52:00.314Z,13.80
2023-03-03T05:54:26.836Z,8.20
2023-03-03T05:56:53.516Z,8.90
2023-03-03T05:59:21.034Z,8.37
2023-03-03T06:01:47.721Z,17.00
2023-03-03T06:04:14.489Z,11.00
2023-03-03T06:06:41.001Z,8.10
2023-03-03T06:09:07.575Z,7.60
2023-03-03T06:11:34.081Z,11.60
2023-03-03T06:14:01.194Z,9.27
2023-03-03T06:16:27.877Z,8.90
2023-03-03T06:18:54.379Z,7.93
2023-03-03T06:21:20.950Z,9.10
2023-03-03T06:23:47.548Z,9.17
2023-03-03T06:26:14.074Z,9.07
2023-03-03T06:28:40.595Z,8.43
2023-03-03T06:31:07.110Z,8.30
2023-03-03T06:33:33.677Z,9.30
2023-03-03T06:36:01.226Z,9.17
2023-03-03T06:38:27.753Z,9.70
2023-03-03T06:40:54.291Z,10.70
2023-03-03T06:43:20.804Z,10.90
2023-03-03T06:45:47.366Z,9.47
2023-03-03T06:48:13.949Z,10.33
2023-03-03T06:50:40.537Z,9.33
2023-03-03T06:53:15.570Z,10.30
2023-03-03T06:55:44.671Z,13.17
2023-03-03T06:58:17.231Z,12.53
2023-03-03T07:00:46.241Z,12.30
2023-03-03T07:03:16.978Z,10.40
2023-03-03T07:05:44.126Z,11.23
2023-03-03T07:08:15.606Z,12.20
2023-03-03T07:10:42.791Z,10.80
2023-03-03T07:13:27.863Z,11.07
2023-03-03T07:15:56.553Z,11.37
2023-03-03T07:18:32.727Z,11.60
2023-03-03T07:21:01.488Z,11.97
2023-03-03T07:23:31.081Z,12.00
2023-03-03T07:25:57.614Z,12.07
2023-03-03T07:28:29.432Z,12.90
2023-03-03T07:30:57.551Z,13.10
2023-03-03T07:33:24.503Z,13.87
2023-03-03T07:35:52.318Z,13.90
2023-03-03T07:38:51.168Z,14.07
2023-03-03T07:41:26.180Z,13.60
2023-03-03T07:44:02.121Z,13.90
2023-03-03T07:46:43.712Z,14.90
2023-03-03T07:49:25.040Z,15.20
2023-03-03T07:52:00.253Z,16.00
2023-03-03T07:54:40.507Z,16.90
2023-03-03T07:57:10.190Z,14.60
2023-03-03T07:59:39.190Z,14.00
2023-03-03T08:02:17.286Z,15.23
2023-03-03T08:04:52.761Z,13.67
2023-03-03T08:07:20.806Z,13.57
2023-03-03T08:09:52.527Z,16.50
2023-03-03T08:12:25.219Z,14.07
2023-03-03T08:14:52.620Z,15.23
2023-03-03T08:17:24.434Z,17.13
2023-03-03T08:19:52.267Z,14.50
2023-03-03T08:22:25.444Z,16.80
2023-03-03T08:24:52.052Z,15.53
2023-03-03T08:27:18.505Z,15.30
2023-03-03T08:29:47.007Z,16.00
2023-03-03T08:32:14.977Z,16.20
2023-03-03T08:34:41.607Z,13.63
2023-03-03T08:37:08.209Z,12.90
2023-03-03T08:39:34.741Z,13.37
2023-03-03T08:42:01.376Z,14.80
2023-03-03T08:44:27.979Z,13.47
2023-03-03T08:46:54.800Z,15.80
2023-03-03T08:49:36.864Z,16.20
2023-03-03T08:52:03.938Z,14.93
2023-03-03T08:54:30.896Z,15.20
2023-03-03T08:56:57.530Z,14.00
2023-03-03T08:59:24.164Z,16.30
2023-03-03T09:01:50.710Z,16.37
2023-03-03T09:04:17.307Z,15.50
2023-03-03T09:06:43.895Z,15.27
2023-03-03T09:09:10.391Z,14.20
2023-03-03T09:11:37.078Z,14.90
2023-03-03T09:14:18.177Z,14.93
2023-03-03T09:16:56.518Z,15.30
2023-03-03T09:19:32.640Z,16.93
2023-03-03T09:22:03.810Z,16.50
2023-03-03T09:24:31.545Z,15.53
2023-03-03T09:26:59.074Z,14.80
2023-03-03T09:29:29.551Z,16.43
2023-03-03T09:31:59.726Z,17.00
2023-03-03T09:34:38.590Z,16.87
2023-03-03T09:37:15.949Z,17.43
2023-03-03T09:39:42.622Z,15.50
2023-03-03T09:42:38.808Z,16.50
2023-03-03T09:45:12.965Z,18.20
2023-03-03T09:48:04.515Z,15.40
2023-03-03T09:51:01.034Z,17.70
2023-03-03T09:53:47.321Z,17.20
2023-03-03T09:56:22.473Z,18.67
2023-03-03T09:59:10.387Z,18.13
2023-03-03T10:01:49.039Z,19.10
2023-03-03T10:05:04.313Z,17.60
2023-03-03T10:07:43.072Z,21.20
2023-03-03T10:10:40.413Z,18.73
2023-03-03T10:13:21.065Z,18.00
2023-03-03T10:16:05.882Z,16.70
2023-03-03T10:18:38.529Z,19.83
2023-03-03T10:21:12.239Z,18.50
2023-03-03T10:23:58.353Z,19.03
2023-03-03T10:26:44.762Z,19.93
2023-03-03T10:29:37.811Z,19.87
2023-03-03T10:32:35.316Z,18.73
2023-03-03T10:35:23.074Z,18.87
2023-03-03T10:38:10.797Z,22.13
2023-03-03T10:41:04.397Z,21.17
2023-03-03T10:43:55.142Z,19.53
2023-03-03T10:46:25.978Z,20.13
2023-03-03T10:49:07.703Z,20.97
2023-03-03T10:51:40.204Z,22.13
2023-03-03T10:54:09.559Z,21.27
2023-03-03T10:56:53.689Z,22.10
2023-03-03T10:59:38.758Z,20.23
2023-03-03T11:02:18.472Z,23.63
2023-03-03T11:04:47.947Z,22.70
2023-03-03T11:07:22.767Z,24.00
2023-03-03T11:09:53.923Z,26.83
2023-03-03T11:12:35.423Z,25.40
2023-03-03T11:15:27.372Z,24.30
2023-03-03T11:18:04.511Z,23.53
2023-03-03T11:20:55.746Z,27.20
2023-03-03T11:23:36.759Z,25.20
2023-03-03T11:26:44.719Z,28.53
2023-03-03T11:29:29.728Z,29.37
2023-03-03T11:32:00.739Z,27.93
2023-03-03T11:34:27.317Z,26.73
2023-03-03T11:37:16.428Z,24.53
2023-03-03T11:39:44.753Z,28.47
2023-03-03T11:42:26.861Z,26.10
2023-03-03T11:45:18.060Z,24.60
2023-03-03T11:48:01.542Z,25.07
2023-03-03T11:50:48.241Z,24.17
2023-03-03T11:53:14.872Z,23.17
2023-03-03T11:55:48.074Z,25.17
2023-03-03T11:58:20.595Z,23.37
2023-03-03T12:00:52.750Z,25.87
2023-03-03T12:03:31.625Z,27.33
2023-03-03T12:06:05.069Z,24.20
2023-03-03T12:09:09.117Z,23.63
2023-03-03T12:11:51.088Z,24.50
2023-03-03T12:14:46.221Z,25.10
2023-03-03T12:17:21.606Z,23.67
2023-03-03T12:19:57.610Z,23.60
2023-03-03T12:22:31.974Z,29.50
2023-03-03T12:25:14.407Z,27.47
2023-03-03T12:28:05.967Z,25.13
2023-03-03T12:30:47.727Z,23.97
2023-03-03T12:33:30.316Z,26.30
2023-03-03T12:36:02.883Z,25.00
2023-03-03T12:38:36.988Z,25.57
2023-03-03T12:41:33.460Z,24.07
2023-03-03T12:44:13.264Z,24.63
2023-03-03T12:46:58.083Z,25.30
2023-03-03T12:49:42.777Z,26.17
2023-03-03T12:52:26.035Z,23.77
2023-03-03T12:55:01.343Z,26.63
2023-03-03T12:57:50.289Z,25.37
2023-03-03T13:00:27.719Z,26.97
2023-03-03T13:03:32.080Z,26.60
2023-03-03T13:06:30.142Z,25.17
2023-03-03T13:09:15.963Z,25.67
2023-03-03T13:11:54.089Z,23.93
2023-03-03T13:14:43.487Z,23.17
2023-03-03T13:17:58.402Z,26.23
2023-03-03T13:20:35.956Z,24.87
2023-03-03T13:23:26.805Z,29.27
2023-03-03T13:25:56.324Z,26.97
2023-03-03T13:28:31.634Z,25.83
2023-03-03T13:31:06.760Z,26.23
2023-03-03T13:33:36.956Z,26.13
2023-03-03T13:36:09.427Z,24.17
2023-03-03T13:38:43.009Z,24.10
2023-03-03T13:41:25.074Z,22.33
2023-03-03T13:44:04.324Z,23.43
2023-03-03T13:46:40.516Z,26.23
2023-03-03T13:49:16.054Z,21.70
2023-03-03T13:51:59.826Z,25.67
2023-03-03T13:54:36.589Z,26.33
2023-03-03T13:57:26.150Z,23.37
2023-03-03T14:00:02.542Z,22.30
2023-03-03T14:02:47.403Z,23.40
2023-03-03T14:05:28.636Z,23.60
2023-03-03T14:07:59.840Z,21.33
2023-03-03T14:10:52.062Z,23.30
2023-03-03T14:14:02.679Z,23.67
2023-03-03T14:16:56.972Z,23.07
2023-03-03T14:19:33.138Z,25.07
2023-03-03T14:22:07.284Z,23.30
2023-03-03T14:24:58.727Z,21.90
2023-03-03T14:27:27.481Z,22.60
2023-03-03T14:29:54.269Z,22.57
2023-03-03T14:32:35.883Z,22.83
2023-03-03T14:35:19.454Z,24.13
2023-03-03T14:37:47.327Z,25.83
2023-03-03T14:40:24.976Z,24.50
2023-03-03T14:42:51.530Z,23.50
2023-03-03T14:45:41.275Z,20.77
2023-03-03T14:48:37.533Z,22.80
2023-03-03T14:51:29.204Z,21.63
2023-03-03T14:53:57.625Z,22.57
2023-03-03T14:56:26.992Z,20.90
2023-03-03T14:59:20.709Z,19.97
2023-03-03T15:01:47.546Z,24.60
2023-03-03T15:04:14.252Z,22.47
2023-03-03T15:06:45.816Z,23.17
2023-03-03T15:09:50.959Z,19.30
2023-03-03T15:12:23.829Z,19.70
2023-03-03T15:15:09.471Z,20.63
2023-03-03T15:17:42.949Z,21.03
2023-03-03T15:20:27.217Z,20.67
2023-03-03T15:23:14.050Z,19.40
2023-03-03T15:25:59.844Z,21.73
2023-03-03T15:29:03.243Z,19.90
2023-03-03T15:31:47.483Z,20.57
2023-03-03T15:34:38.780Z,21.07
2023-03-03T15:37:28.117Z,21.00
2023-03-03T15:40:04.393Z,21.80
2023-03-03T15:42:41.224Z,20.23
2023-03-03T15:45:18.143Z,20.80
2023-03-03T15:48:09.037Z,20.60
2023-03-03T15:50:44.839Z,21.33
2023-03-03T15:53:27.538Z,18.07
2023-03-03T15:56:16.394Z,20.03
2023-03-03T15:59:20.629Z,18.30
2023-03-03T16:02:11.313Z,23.03
2023-03-03T16:04:45.022Z,20.53
2023-03-03T16:07:49.184Z,21.07
2023-03-03T16:10:24.786Z,18.67
2023-03-03T16:13:28.361Z,20.50
2023-03-03T16:16:20.043Z,21.50
2023-03-03T16:19:04.155Z,21.87
2023-03-03T16:22:18.559Z,22.17
2023-03-03T16:24:47.913Z,23.00
2023-03-03T16:27:35.394Z,23.40
2023-03-03T16:30:11.082Z,27.53
2023-03-03T16:33:02.377Z,27.37
2023-03-03T16:35:33.892Z,26.93
2023-03-03T16:38:17.980Z,25.37
2023-03-03T16:40:54.397Z,22.77
2023-03-03T16:43:37.824Z,22.57
2023-03-03T16:46:22.509Z,23.60
2023-03-03T16:49:09.610Z,22.83
2023-03-03T16:51:49.817Z,20.67
2023-03-03T16:54:40.445Z,24.80
2023-03-03T16:57:27.899Z,21.07
2023-03-03T17:00:18.889Z,21.67
2023-03-03T17:02:48.108Z,21.70
2023-03-03T17:05:29.981Z,20.33
2023-03-03T17:10:43.199Z,20.30
2023-03-03T17:13:33.458Z,17.50
2023-03-03T17:16:14.919Z,21.40
2023-03-03T17:18:56.510Z,16.73
2023-03-03T17:21:47.990Z,17.37
2023-03-03T17:24:49.036Z,15.40
2023-03-03T17:27:28.569Z,16.67
2023-03-03T17:30:13.151Z,16.70
2023-03-03T17:32:39.629Z,15.60
2023-03-03T17:35:24.629Z,16.50
2023-03-03T17:37:58.487Z,17.33
2023-03-03T17:40:43.725Z,19.33
2023-03-03T17:43:21.970Z,18.50
2023-03-03T17:45:50.603Z,18.50
2023-03-03T17:48:42.221Z,18.37
2023-03-03T17:51:33.324Z,18.27
2023-03-03T17:54:28.661Z,15.87
2023-03-03T17:57:18.425Z,17.50
2023-03-03T17:59:55.933Z,17.80
2023-03-03T18:02:42.115Z,20.90
2023-03-03T18:05:27.003Z,16.47
2023-03-03T18:08:15.275Z,16.50
2023-03-03T18:11:19.360Z,15.57
2023-03-03T18:13:52.209Z,17.23
2023-03-03T18:16:36.721Z,16.50
2023-03-03T18:19:11.620Z,16.03
2023-03-03T18:21:49.916Z,17.17
2023-03-03T18:24:25.547Z,18.07
2023-03-03T18:26:55.923Z,16.67
2023-03-03T18:29:26.327Z,19.53
2023-03-03T18:31:52.764Z,18.60
2023-03-03T18:34:22.354Z,17.97
2023-03-03T18:36:55.141Z,17.40
2023-03-03T18:40:01.829Z,17.43
2023-03-03T18:42:37.419Z,20.57
2023-03-03T18:45:11.040Z,19.90
2023-03-03T18:48:17.469Z,19.27
2023-03-03T18:50:48.967Z,21.97
2023-03-03T18:53:23.379Z,20.03
2023-03-03T18:55:57.601Z,20.40
2023-03-03T18:58:28.096Z,22.97
2023-03-03T19:00:55.755Z,19.03
2023-03-03T19:03:46.983Z,20.20
2023-03-03T19:06:35.539Z,18.70
2023-03-03T19:09:02.872Z,21.67
2023-03-03T19:11:44.556Z,20.60
2023-03-03T19:14:25.888Z,18.53
2023-03-03T19:16:53.593Z,18.53
2023-03-03T19:19:24.947Z,19.67
2023-03-03T19:22:21.949Z,19.50
2023-03-03T19:25:10.336Z,18.80
2023-03-03T19:27:55.930Z,19.40
2023-03-03T19:30:42.165Z,18.77
2023-03-03T19:33:21.940Z,21.90
2023-03-03T19:36:16.765Z,20.50
2023-03-03T19:38:55.749Z,22.20
2023-03-03T19:41:40.921Z,25.60
2023-03-03T19:44:25.756Z,22.30
2023-03-03T19:46:56.416Z,25.37
2023-03-03T19:49:28.353Z,23.40
2023-03-03T19:52:09.065Z,22.40
2023-03-03T19:54:54.591Z,24.37
2023-03-03T19:57:39.609Z,23.93
2023-03-03T20:00:36.740Z,23.10
2023-03-03T20:03:37.231Z,22.87
2023-03-03T20:06:20.901Z,28.23
2023-03-03T20:08:53.233Z,23.67
2023-03-03T20:11:38.478Z,22.90
2023-03-03T20:14:28.452Z,24.73
2023-03-03T20:16:59.519Z,23.50
2023-03-03T20:19:45.171Z,22.30
2023-03-03T20:22:17.899Z,22.27
2023-03-03T20:25:09.447Z,21.70
2023-03-03T20:27:59.555Z,22.60
2023-03-03T20:30:31.942Z,20.50
2023-03-03T20:33:03.263Z,20.70
2023-03-03T20:35:55.947Z,22.07
2023-03-03T20:41:23.803Z,22.77
2023-03-03T20:44:07.553Z,23.17
2023-03-03T20:46:55.900Z,23.00
2023-03-03T20:49:50.742Z,24.67
2023-03-03T20:52:32.515Z,20.97
2023-03-03T20:55:23.656Z,21.00
2023-03-03T20:58:01.445Z,20.10
2023-03-03T21:00:40.026Z,22.33
2023-03-03T21:03:11.569Z,21.47
2023-03-03T21:05:55.494Z,22.07
2023-03-03T21:08:46.856Z,21.73
2023-03-03T21:11:15.015Z,20.00
2023-03-03T21:13:54.081Z,20.70
2023-03-03T21:16:20.529Z,20.63
2023-03-03T21:18:56.788Z,24.27
2023-03-03T21:21:23.344Z,24.53
2023-03-03T21:23:50.606Z,23.10
2023-03-03T21:26:50.519Z,21.17
2023-03-03T21:29:18.383Z,19.47
2023-03-03T21:31:56.452Z,18.70
2023-03-03T21:34:25.040Z,22.20
2023-03-03T21:36:52.836Z,19.87
2023-03-03T21:39:29.893Z,20.37
2023-03-03T21:42:06.459Z,19.33
2023-03-03T21:44:39.060Z,19.47
2023-03-03T21:47:07.221Z,22.20
2023-03-03T21:49:34.223Z,22.53
2023-03-03T21:52:01.455Z,20.00
2023-03-03T21:54:28.193Z,20.53
2023-03-03T21:56:54.775Z,19.20
2023-03-03T21:59:21.329Z,19.47
2023-03-03T22:01:48.118Z,18.60
2023-03-03T22:04:15.031Z,23.23
2023-03-03T22:06:41.818Z,21.37
2023-03-03T22:09:08.835Z,21.90
2023-03-03T22:11:35.533Z,21.30
2023-03-03T22:14:02.063Z,19.63
2023-03-03T22:16:28.611Z,22.20
2023-03-03T22:18:55.150Z,21.93
2023-03-03T22:21:22.088Z,20.40
2023-03-03T22:23:48.677Z,20.80
2023-03-03T22:26:15.244Z,18.97
2023-03-03T22:28:44.166Z,19.43
2023-03-03T22:31:11.092Z,19.83
2023-03-03T22:33:37.646Z,19.70
2023-03-03T22:36:04.571Z,18.00
2023-03-03T22:38:31.053Z,18.80
2023-03-03T22:40:57.668Z,19.87
2023-03-03T22:43:25.732Z,18.93
2023-03-03T22:45:52.442Z,18.40
2023-03-03T22:48:19.633Z,21.10
2023-03-03T22:50:47.482Z,18.40
2023-03-03T22:53:14.019Z,17.97
2023-03-03T22:55:40.829Z,19.00
2023-03-03T22:58:09.440Z,18.43
2023-03-03T23:00:39.451Z,19.67
2023-03-03T23:03:07.124Z,18.13
2023-03-03T23:05:34.052Z,17.60
2023-03-03T23:08:00.665Z,17.97
2023-03-03T23:10:27.175Z,17.50
2023-03-03T23:12:53.876Z,17.53
2023-03-03T23:15:20.742Z,17.67
2023-03-03T23:17:47.382Z,16.27
2023-03-03T23:20:19.656Z,17.50
2023-03-03T23:22:46.439Z,15.80
2023-03-03T23:25:14.642Z,17.00
2023-03-03T23:27:42.058Z,16.67
2023-03-03T23:30:10.838Z,16.17
2023-03-03T23:32:37.594Z,17.00
2023-03-03T23:35:04.477Z,16.60
2023-03-03T23:37:31.423Z,17.27
2023-03-03T23:39:58.088Z,16.10
2023-03-03T23:42:30.925Z,18.83
2023-03-03T23:44:57.733Z,19.43
2023-03-03T23:47:24.277Z,15.70
2023-03-03T23:49:50.846Z,18.20
2023-03-03T23:52:18.409Z,17.07
2023-03-03T23:54:45.670Z,19.50
2023-03-03T23:57:12.269Z,16.73
2023-03-03T23:59:38.817Z,16.23
